Time;durP1;ratioP1;P1;durP2;ratioP2;P2;SDS_P1;SDS_P2;PMS_P1;PMS_P2;Temp;Humidity;BMP_temperature;BMP_pressure;BME280_temperature;BME280_humidity;BME280_pressure;Samples;Min_cycle;Max_cycle;Signal;HPM_P1;HPM_P2
2023/09/28 00:00:45;;;;;;;10.65;5.33;;;;;;;14.67;72.63;101383.28;1828678;78;20999;-76
2023/09/28 00:03:14;;;;;;;8.15;5.60;;;;;;;14.66;72.83;101382.95;1828539;78;21434;-74
2023/09/28 00:05:43;;;;;;;10.58;5.90;;;;;;;14.67;72.97;101381.38;1828678;78;21085;-72
2023/09/28 00:08:12;;;;;;;9.03;5.55;;;;;;;14.66;73.09;101377.44;1828548;78;21096;-74
2023/09/28 00:10:42;;;;;;;10.05;6.12;;;;;;;14.66;73.22;101374.15;1828607;78;21023;-73
2023/09/28 00:13:12;;;;;;;9.20;5.60;;;;;;;14.68;73.14;101378.94;1828722;78;21061;-74
2023/09/28 00:15:42;;;;;;;9.23;5.70;;;;;;;14.66;73.03;101375.53;1828507;78;21485;-75
2023/09/28 00:18:13;;;;;;;9.08;5.40;;;;;;;14.62;73.18;101368.70;1828582;78;21022;-74
2023/09/28 00:20:42;;;;;;;11.12;5.50;;;;;;;14.63;73.29;101377.84;1828420;78;21123;-74
2023/09/28 00:23:12;;;;;;;8.00;5.40;;;;;;;14.65;73.40;101377.96;1828606;78;20995;-75
2023/09/28 00:25:41;;;;;;;12.50;5.83;;;;;;;14.62;73.48;101380.27;1828561;78;20971;-74
2023/09/28 00:28:11;;;;;;;10.05;5.62;;;;;;;14.58;73.64;101377.91;1828474;78;21070;-73
2023/09/28 00:30:42;;;;;;;10.32;5.67;;;;;;;14.54;73.90;101375.75;1828427;78;21066;-73
2023/09/28 00:33:11;;;;;;;8.55;5.75;;;;;;;14.53;74.11;101375.42;1828449;78;21014;-74
2023/09/28 00:35:40;;;;;;;9.08;5.87;;;;;;;14.51;74.29;101382.52;1828388;78;21018;-75
2023/09/28 00:38:12;;;;;;;8.85;5.83;;;;;;;14.51;74.43;101377.00;1793092;78;22000;-74
2023/09/28 00:40:42;;;;;;;10.68;5.85;;;;;;;14.50;74.41;101385.48;1828636;78;21077;-74
2023/09/28 00:43:12;;;;;;;9.05;6.20;;;;;;;14.48;74.57;101373.80;1828441;78;21069;-74
2023/09/28 00:45:42;;;;;;;8.58;5.90;;;;;;;14.50;74.62;101373.06;1828837;78;21070;-73
2023/09/28 00:48:11;;;;;;;10.80;5.90;;;;;;;14.53;74.57;101375.42;1828408;78;21015;-73
2023/09/28 00:50:40;;;;;;;13.85;6.83;;;;;;;14.54;74.50;101373.84;1828800;78;21034;-75
2023/09/28 00:53:10;;;;;;;14.53;6.35;;;;;;;14.50;74.44;101377.20;1828497;78;21540;-74
2023/09/28 00:55:39;;;;;;;11.90;6.37;;;;;;;14.44;74.64;101375.25;1828536;78;21482;-74
2023/09/28 00:58:09;;;;;;;13.20;6.37;;;;;;;14.40;74.82;101380.27;1828622;78;21042;-74
2023/09/28 01:00:40;;;;;;;11.93;6.62;;;;;;;14.37;75.03;101376.53;1828518;78;21454;-73
2023/09/28 01:03:10;;;;;;;14.38;6.53;;;;;;;14.35;75.27;101381.39;1828429;78;21492;-75
2023/09/28 01:05:42;;;;;;;13.45;6.58;;;;;;;14.33;75.48;101377.13;1795349;78;21054;-74
2023/09/28 01:08:22;;;;;;;14.80;7.00;;;;;;;14.34;75.61;101373.33;1828548;78;21023;-73
2023/09/28 01:10:52;;;;;;;10.30;5.97;;;;;;;14.33;75.70;101386.25;1828507;78;21018;-74
2023/09/28 01:13:27;;;;;;;12.43;6.45;;;;;;;14.34;75.60;101381.06;1828635;78;21029;-75
2023/09/28 01:15:57;;;;;;;11.38;6.42;;;;;;;14.28;75.68;101384.06;1828363;78;21017;-74
2023/09/28 01:18:27;;;;;;;11.60;6.28;;;;;;;14.25;75.89;101383.08;1828749;78;21034;-74
2023/09/28 01:20:58;;;;;;;10.00;6.10;;;;;;;14.22;76.04;101381.24;1828491;78;21065;-74
2023/09/28 01:23:27;;;;;;;10.40;5.58;;;;;;;14.19;76.22;101379.73;1828424;78;21010;-74
2023/09/28 01:25:57;;;;;;;9.23;5.72;;;;;;;14.21;76.42;101383.14;1828379;78;21015;-75
2023/09/28 01:28:27;;;;;;;9.23;6.42;;;;;;;14.19;76.50;101383.87;1828387;78;21046;-75
2023/09/28 01:30:56;;;;;;;11.80;5.83;;;;;;;14.18;76.66;101378.03;1828446;78;21493;-73
2023/09/28 01:33:26;;;;;;;11.03;6.03;;;;;;;14.18;76.78;101384.92;1828764;78;21058;-74
2023/09/28 01:35:55;;;;;;;11.80;6.65;;;;;;;14.17;76.77;101386.49;1828675;78;20999;-74
2023/09/28 01:38:37;;;;;;;10.95;6.83;;;;;;;14.14;76.82;101378.09;1828604;78;21062;-73
2023/09/28 01:41:07;;;;;;;10.40;6.37;;;;;;;14.11;76.89;101381.25;1828746;78;21007;-74
2023/09/28 01:43:37;;;;;;;12.60;7.08;;;;;;;14.09;77.03;101380.59;1828640;78;21090;-73
2023/09/28 01:46:10;;;;;;;14.63;6.08;;;;;;;14.07;77.16;101384.06;1828727;78;21018;-75
2023/09/28 01:48:40;;;;;;;10.15;6.72;;;;;;;14.09;77.29;101379.73;1828467;78;21466;-73
2023/09/28 01:51:09;;;;;;;11.48;6.35;;;;;;;14.10;77.46;101389.19;1828534;78;21002;-75
2023/09/28 01:53:38;;;;;;;10.63;6.58;;;;;;;14.09;77.56;101388.00;1828578;78;21516;-75
2023/09/28 01:56:08;;;;;;;11.88;6.67;;;;;;;14.08;77.61;101389.05;1828782;78;21058;-74
2023/09/28 01:58:36;;;;;;;11.35;6.58;;;;;;;14.05;77.67;101388.92;1827742;78;21192;-74
2023/09/28 02:01:06;;;;;;;15.85;6.90;;;;;;;14.04;77.73;101393.25;1814399;79;21443;-72
2023/09/28 02:03:35;;;;;;;11.22;6.72;;;;;;;14.02;77.76;101387.08;1814550;79;21019;-74
2023/09/28 02:06:04;;;;;;;12.88;6.28;;;;;;;14.00;77.87;101394.17;1814261;79;21424;-74
2023/09/28 02:08:34;;;;;;;11.63;6.33;;;;;;;14.00;78.09;101393.31;1814359;78;21528;-74
2023/09/28 02:11:03;;;;;;;37.70;24.50;;;;;;;14.00;78.25;101396.92;1814750;79;21019;-74
2023/09/28 02:13:33;;;;;;;19.12;9.10;;;;;;;13.99;78.27;101397.13;1814409;79;21015;-73
2023/09/28 02:16:05;;;;;;;11.88;6.85;;;;;;;13.98;78.44;101398.17;1814446;79;21046;-75
2023/09/28 02:18:35;;;;;;;12.78;7.00;;;;;;;14.03;78.43;101399.29;1786393;79;21481;-74
2023/09/28 02:21:12;;;;;;;12.30;6.35;;;;;;;14.07;78.32;101403.36;1814491;79;21002;-75
2023/09/28 02:23:42;;;;;;;12.68;7.42;;;;;;;14.10;78.16;101397.45;1814567;79;21515;-75
2023/09/28 02:26:11;;;;;;;14.03;6.55;;;;;;;14.13;78.06;101403.09;1814673;79;21030;-74
2023/09/28 02:28:40;;;;;;;13.18;7.03;;;;;;;14.18;77.99;101403.36;1814583;79;21011;-76
2023/09/28 02:31:10;;;;;;;13.70;7.10;;;;;;;14.20;77.89;101400.73;1814561;79;21042;-74
2023/09/28 02:33:41;;;;;;;11.97;7.50;;;;;;;14.21;77.82;101403.82;1814488;79;21051;-73
2023/09/28 02:36:11;;;;;;;10.75;6.87;;;;;;;14.21;77.80;101405.20;1814445;79;21446;-74
2023/09/28 02:38:41;;;;;;;11.93;7.28;;;;;;;14.23;77.75;101406.37;1814390;79;21067;-74
2023/09/28 02:41:18;;;;;;;13.15;7.03;;;;;;;14.23;77.67;101408.61;1814469;79;21454;-74
2023/09/28 02:43:48;;;;;;;17.37;8.00;;;;;;;14.23;77.71;101407.23;1814484;79;21444;-73
2023/09/28 02:46:17;;;;;;;11.15;6.50;;;;;;;14.27;77.75;101409.92;1814405;79;21054;-74
2023/09/28 02:48:48;;;;;;;12.60;7.10;;;;;;;14.29;77.77;101411.10;1814350;79;21032;-74
2023/09/28 02:51:18;;;;;;;15.48;7.67;;;;;;;14.25;77.84;101402.38;1814470;79;21501;-75
2023/09/28 02:53:46;;;;;;;14.93;8.05;;;;;;;14.23;77.98;101404.47;1814495;79;21011;-75
2023/09/28 02:56:17;;;;;;;11.50;7.10;;;;;;;14.22;78.14;101402.77;1814656;79;21051;-74
2023/09/28 02:58:46;;;;;;;12.63;7.50;;;;;;;14.23;78.22;101398.11;1814439;79;21463;-75
2023/09/28 03:01:16;;;;;;;12.58;7.20;;;;;;;14.24;78.31;101402.57;1785851;79;21030;-74
2023/09/28 03:03:45;;;;;;;11.97;8.05;;;;;;;14.25;78.43;101391.88;1814323;79;21474;-74
2023/09/28 03:06:15;;;;;;;15.20;7.30;;;;;;;14.29;78.52;101397.31;1814481;79;20991;-75
2023/09/28 03:08:44;;;;;;;10.00;7.30;;;;;;;14.36;78.53;101395.51;1814382;79;21008;-74
2023/09/28 03:11:14;;;;;;;14.85;7.83;;;;;;;14.42;78.41;101393.37;1814377;79;21031;-75
2023/09/28 03:13:44;;;;;;;13.65;7.10;;;;;;;14.47;78.24;101390.02;1814633;79;21019;-74
2023/09/28 03:16:13;;;;;;;14.35;7.60;;;;;;;14.50;78.12;101389.61;1814622;79;21046;-75
2023/09/28 03:18:43;;;;;;;12.33;7.58;;;;;;;14.53;77.96;101390.59;1814706;78;21086;-74
2023/09/28 03:21:11;;;;;;;12.80;7.35;;;;;;;14.52;77.81;101382.84;1814363;79;21489;-76
2023/09/28 03:23:40;;;;;;;11.53;7.45;;;;;;;14.53;77.70;101390.07;1814397;79;21070;-73
2023/09/28 03:26:10;;;;;;;14.87;7.67;;;;;;;14.57;77.55;101389.14;1814701;79;21086;-74
2023/09/28 03:28:39;;;;;;;13.40;7.97;;;;;;;14.59;77.40;101386.51;1814345;78;21023;-74
2023/09/28 03:31:08;;;;;;;13.62;7.50;;;;;;;14.63;77.19;101393.86;1814359;79;21046;-73
2023/09/28 03:33:37;;;;;;;13.75;7.72;;;;;;;14.64;76.98;101386.44;1814582;79;21023;-74
2023/09/28 03:36:06;;;;;;;14.15;7.42;;;;;;;14.63;76.84;101388.87;1814419;79;21010;-75
2023/09/28 03:38:35;;;;;;;14.38;7.45;;;;;;;14.62;76.72;101390.77;1814616;79;21043;-76
2023/09/28 03:41:07;;;;;;;15.45;7.58;;;;;;;14.64;76.56;101391.95;1814398;79;21239;-75
2023/09/28 03:43:36;;;;;;;15.08;7.87;;;;;;;14.63;76.39;101396.62;1814386;79;21007;-74
2023/09/28 03:46:06;;;;;;;14.63;8.05;;;;;;;14.61;76.25;101391.83;1814511;79;21055;-75
2023/09/28 03:48:36;;;;;;;14.75;7.47;;;;;;;14.63;76.15;101393.00;1814513;79;21043;-74
2023/09/28 03:51:05;;;;;;;12.93;7.47;;;;;;;14.64;76.00;101398.32;1814365;79;21253;-75
2023/09/28 03:53:39;;;;;;;14.83;7.92;;;;;;;14.63;75.97;101399.37;1814649;78;21059;-74
2023/09/28 03:56:09;;;;;;;17.82;8.40;;;;;;;14.65;75.89;101401.94;1787008;79;21034;-73
2023/09/28 03:58:38;;;;;;;13.60;8.68;;;;;;;14.66;75.76;101406.40;1814399;79;21077;-74
2023/09/28 04:01:08;;;;;;;13.78;7.92;;;;;;;14.65;75.68;101408.30;1814499;78;21059;-74
2023/09/28 04:03:37;;;;;;;13.35;7.47;;;;;;;14.64;75.63;101403.84;1814710;79;21027;-74
2023/09/28 04:06:08;;;;;;;15.00;8.43;;;;;;;14.63;75.66;101402.14;1814399;79;20996;-75
2023/09/28 04:08:38;;;;;;;17.85;8.50;;;;;;;14.65;75.61;101404.69;1814523;79;21031;-74
2023/09/28 04:11:07;;;;;;;15.78;9.05;;;;;;;14.66;75.58;101400.88;1814537;79;21030;-71
2023/09/28 04:13:37;;;;;;;17.37;8.63;;;;;;;14.66;75.55;101394.84;1814335;79;21066;-75
2023/09/28 04:16:06;;;;;;;14.40;8.48;;;;;;;14.66;75.55;101397.59;1814287;79;21014;-74
2023/09/28 04:18:36;;;;;;;16.50;9.05;;;;;;;14.69;75.58;101401.33;1814613;79;21027;-76
2023/09/28 04:21:05;;;;;;;16.80;9.73;;;;;;;14.69;75.53;101401.33;1814728;79;21031;-73
2023/09/28 04:23:34;;;;;;;14.07;9.40;;;;;;;14.70;75.51;101403.04;1814371;79;21462;-75
2023/09/28 04:26:05;;;;;;;14.80;9.43;;;;;;;14.72;75.38;101396.80;1814361;79;21314;-73
2023/09/28 04:28:35;;;;;;;17.50;9.38;;;;;;;14.74;75.33;101398.83;1786104;79;21023;-73
2023/09/28 04:31:05;;;;;;;16.65;9.13;;;;;;;14.76;75.25;101398.09;1814364;79;21019;-72
2023/09/28 04:33:34;;;;;;;14.38;8.68;;;;;;;14.77;75.17;101399.80;1814518;78;21082;-74
2023/09/28 04:36:03;;;;;;;17.23;9.13;;;;;;;14.78;75.11;101403.41;1814668;79;21064;-73
2023/09/28 04:38:33;;;;;;;20.97;8.80;;;;;;;14.80;75.08;101399.92;1814310;79;21046;-73
2023/09/28 04:41:02;;;;;;;13.65;8.50;;;;;;;14.81;75.02;101404.39;1814492;78;21023;-73
2023/09/28 04:43:31;;;;;;;15.90;8.78;;;;;;;14.81;75.00;101405.24;1814265;79;21023;-73
2023/09/28 04:46:08;;;;;;;14.73;9.60;;;;;;;14.82;74.94;101400.05;1814243;78;21043;-73
2023/09/28 04:48:37;;;;;;;14.97;8.07;;;;;;;14.83;74.90;101412.80;1814516;79;21016;-72
2023/09/28 04:51:06;;;;;;;16.65;9.30;;;;;;;14.86;74.89;101410.16;1814430;79;21041;-73
2023/09/28 04:53:35;;;;;;;15.83;9.18;;;;;;;14.89;74.87;101410.61;1814352;79;21019;-74
2023/09/28 04:56:12;;;;;;;18.12;8.65;;;;;;;14.93;74.78;101406.06;1814405;79;21042;-73
2023/09/28 04:58:42;;;;;;;;;;;;;;;14.97;74.72;101410.16;1817130;79;21092;-73
2023/09/28 05:01:12;;;;;;;16.37;8.78;;;;;;;14.99;74.68;101413.05;1824424;78;20152;-72
2023/09/28 05:03:42;;;;;;;18.40;9.53;;;;;;;15.01;74.66;101412.84;1828438;78;21006;-74
2023/09/28 05:06:12;;;;;;;16.17;9.18;;;;;;;15.04;74.60;101415.20;1828456;78;21065;-74
2023/09/28 05:08:43;;;;;;;19.65;10.70;;;;;;;15.08;74.58;101413.73;1828546;78;21030;-73
2023/09/28 05:11:13;;;;;;;16.37;9.10;;;;;;;15.13;74.47;101417.59;1828499;78;21492;-74
2023/09/28 05:13:42;;;;;;;29.12;18.50;;;;;;;15.18;74.36;101416.98;1828717;78;21023;-72
2023/09/28 05:16:11;;;;;;;22.60;12.70;;;;;;;15.19;74.25;101429.20;1828559;78;21042;-71
2023/09/28 05:18:42;;;;;;;23.40;10.72;;;;;;;15.22;74.24;101426.05;1828699;78;21010;-73
2023/09/28 05:21:13;;;;;;;15.70;9.23;;;;;;;15.28;74.21;101429.89;1828691;78;21057;-75
2023/09/28 05:23:42;;;;;;;17.85;9.50;;;;;;;15.33;74.12;101422.38;1828627;78;21022;-73
2023/09/28 05:26:12;;;;;;;21.73;10.50;;;;;;;15.36;74.09;101426.11;1828689;78;21085;-74
2023/09/28 05:28:41;;;;;;;12.93;8.45;;;;;;;15.39;74.03;101420.19;1828416;78;21073;-74
2023/09/28 05:31:10;;;;;;;16.07;9.30;;;;;;;15.43;73.97;101419.56;1828618;78;21034;-74
2023/09/28 05:33:41;;;;;;;17.85;9.45;;;;;;;15.50;73.85;101419.59;1828380;78;21010;-73
2023/09/28 05:36:11;;;;;;;18.90;9.18;;;;;;;15.55;73.76;101422.07;1828435;78;21045;-72
2023/09/28 05:38:41;;;;;;;16.52;9.35;;;;;;;15.60;73.64;101425.62;1828545;78;21010;-73
2023/09/28 05:41:11;;;;;;;17.65;9.35;;;;;;;15.64;73.60;101421.43;1828466;78;21042;-72
2023/09/28 05:43:41;;;;;;;18.55;9.65;;;;;;;15.70;73.51;101426.13;1828924;78;21019;-73
2023/09/28 05:46:10;;;;;;;17.48;9.68;;;;;;;15.76;73.39;101429.98;1828505;78;21435;-73
2023/09/28 05:48:40;;;;;;;18.05;9.83;;;;;;;15.80;73.25;101429.36;1828701;78;21062;-72
2023/09/28 05:51:10;;;;;;;24.02;9.68;;;;;;;15.86;73.07;101431.83;1828549;78;21014;-74
2023/09/28 05:53:39;;;;;;;17.25;9.83;;;;;;;15.92;72.98;101427.38;1828671;78;21014;-72
2023/09/28 05:56:10;;;;;;;19.20;9.88;;;;;;;15.99;72.84;101434.63;1828644;78;21419;-76
2023/09/28 05:58:40;;;;;;;20.65;10.40;;;;;;;16.04;72.62;101437.63;1795446;78;21062;-74
2023/09/28 06:01:15;;;;;;;17.95;9.83;;;;;;;16.09;72.54;101437.00;1820240;78;21425;-74
2023/09/28 06:03:50;;;;;;;18.17;9.88;;;;;;;16.13;72.37;101436.37;1814611;79;21721;-74
2023/09/28 06:06:20;;;;;;;18.87;9.45;;;;;;;16.18;72.25;101435.21;1814754;79;21066;-73
2023/09/28 06:08:51;;;;;;;17.67;8.75;;;;;;;16.24;72.07;101432.13;1814532;79;21162;-73
2023/09/28 06:11:21;;;;;;;17.98;9.58;;;;;;;16.32;71.80;101440.80;1814426;79;20983;-73
2023/09/28 06:13:51;;;;;;;15.10;9.28;;;;;;;16.38;71.52;101439.95;1814379;78;21067;-73
2023/09/28 06:16:25;;;;;;;18.02;9.45;;;;;;;16.44;71.28;101435.81;1783650;79;21491;-73
2023/09/28 06:18:53;;;;;;;18.30;9.45;;;;;;;16.51;71.08;101435.82;1814243;79;21019;-73
2023/09/28 06:21:23;;;;;;;17.48;8.58;;;;;;;16.55;70.87;101432.09;1814648;79;21046;-74
2023/09/28 06:23:52;;;;;;;14.13;9.25;;;;;;;16.61;70.76;101432.10;1814473;79;21113;-73
2023/09/28 06:26:21;;;;;;;15.63;9.10;;;;;;;16.66;70.65;101432.34;1814807;78;21011;-74
2023/09/28 06:28:52;;;;;;;18.87;8.95;;;;;;;16.70;70.60;101434.16;1810331;78;20988;-73
2023/09/28 06:31:22;;;;;;;17.50;8.50;;;;;;;16.74;70.48;101429.37;1814457;79;21458;-75
2023/09/28 06:33:52;;;;;;;15.08;8.43;;;;;;;16.80;70.43;101434.05;1814426;79;21011;-74
2023/09/28 06:36:21;;;;;;;18.57;8.95;;;;;;;16.88;70.41;101439.05;1814339;79;21457;-74
2023/09/28 06:38:54;;;;;;;16.25;8.83;;;;;;;16.95;70.33;101438.55;1810753;79;21062;-74
2023/09/28 06:41:25;;;;;;;17.15;8.23;;;;;;;17.00;70.28;101439.60;1814627;79;21438;-73
2023/09/28 06:43:55;;;;;;;13.22;8.00;;;;;;;17.04;70.09;101435.88;1814622;79;21074;-74
2023/09/28 06:46:25;;;;;;;15.20;8.78;;;;;;;17.10;69.89;101447.47;1814421;79;21466;-72
2023/09/28 06:48:56;;;;;;;12.25;7.47;;;;;;;17.16;69.57;101444.38;1814541;79;21059;-74
2023/09/28 06:51:27;;;;;;;21.62;8.33;;;;;;;17.20;69.37;101442.34;1814452;79;21058;-73
2023/09/28 06:53:56;;;;;;;14.60;7.47;;;;;;;17.28;69.18;101446.80;1814396;79;21034;-73
2023/09/28 06:56:26;;;;;;;15.68;7.78;;;;;;;17.33;69.03;101447.00;1814476;79;21473;-74
2023/09/28 06:58:56;;;;;;;14.55;8.13;;;;;;;17.38;68.95;101439.74;1814574;79;21035;-73
2023/09/28 07:01:27;;;;;;;13.90;7.78;;;;;;;17.45;68.74;101438.34;1822366;78;21085;-73
2023/09/28 07:03:56;;;;;;;12.05;7.35;;;;;;;17.52;68.50;101439.70;1828475;78;21022;-74
2023/09/28 07:06:27;;;;;;;14.00;7.17;;;;;;;17.57;68.41;101442.70;1828555;78;20998;-75
2023/09/28 07:08:57;;;;;;;11.22;7.05;;;;;;;17.65;68.24;101443.84;1828509;78;21229;-74
2023/09/28 07:11:26;;;;;;;11.70;7.47;;;;;;;17.70;67.92;101439.91;1828765;78;21026;-73
2023/09/28 07:13:56;;;;;;;14.75;7.78;;;;;;;17.78;67.91;101448.52;1828467;78;21093;-73
2023/09/28 07:16:25;;;;;;;14.58;8.13;;;;;;;17.83;67.87;101439.00;1828596;78;21007;-74
2023/09/28 07:18:54;;;;;;;13.98;7.17;;;;;;;17.89;67.70;101450.60;1828499;78;21042;-75
2023/09/28 07:21:24;;;;;;;17.02;8.03;;;;;;;17.94;67.47;101449.41;1828684;78;21438;-74
2023/09/28 07:23:54;;;;;;;13.30;7.47;;;;;;;17.99;67.22;101447.67;1828330;78;21015;-73
2023/09/28 07:26:25;;;;;;;13.90;8.63;;;;;;;18.05;66.96;101453.72;1824445;78;21034;-72
2023/09/28 07:28:54;;;;;;;10.98;7.35;;;;;;;18.11;66.82;101446.97;1792938;78;21049;-73
2023/09/28 07:31:24;;;;;;;14.95;8.35;;;;;;;18.13;66.44;101444.82;1828726;78;21038;-73
2023/09/28 07:33:56;;;;;;;13.25;8.20;;;;;;;18.18;66.24;101446.39;1828439;78;21435;-74
2023/09/28 07:36:25;;;;;;;15.13;7.55;;;;;;;18.23;66.16;101442.45;1828508;78;21015;-74
2023/09/28 07:38:54;;;;;;;12.30;7.40;;;;;;;18.27;66.03;101443.70;1828459;78;21451;-74
2023/09/28 07:41:24;;;;;;;14.18;7.70;;;;;;;18.32;65.87;101446.66;1828597;78;20982;-74
2023/09/28 07:43:55;;;;;;;13.22;7.55;;;;;;;18.37;65.78;101445.45;1828367;78;21069;-75
2023/09/28 07:46:27;;;;;;;14.07;7.50;;;;;;;18.43;65.80;101439.54;1828489;78;21014;-74
2023/09/28 07:48:56;;;;;;;14.95;7.12;;;;;;;18.63;65.77;101450.84;1828407;78;21078;-75
2023/09/28 07:51:26;;;;;;;14.18;7.12;;;;;;;19.02;65.24;101440.50;1837472;75;21050;-72
2023/09/28 07:53:55;;;;;;;13.58;7.87;;;;;;;19.52;64.18;101447.37;1868382;76;21081;-72
2023/09/28 07:56:25;;;;;;;12.85;7.47;;;;;;;20.12;62.54;101447.50;1770796;80;21419;-71
2023/09/28 07:58:55;;;;;;;10.85;7.67;;;;;;;20.66;60.27;101442.90;1823296;79;21520;-72
2023/09/28 08:01:26;;;;;;;17.67;9.20;;;;;;;21.15;58.86;101439.70;1776028;80;21039;-72
2023/09/28 08:03:55;;;;;;;16.25;9.00;;;;;;;21.63;58.05;101435.83;1803522;79;21493;-73
2023/09/28 08:06:25;;;;;;;18.32;7.90;;;;;;;22.04;55.73;101435.31;1803407;78;21084;-72
2023/09/28 08:08:59;;;;;;;12.95;7.53;;;;;;;22.31;54.19;101432.25;1796593;78;21062;-75
2023/09/28 08:11:34;;;;;;;;;;;;;;;22.67;53.56;101437.09;1792511;80;21013;-73
2023/09/28 08:14:05;;;;;;;13.65;7.40;;;;;;;23.03;52.30;101442.78;1789476;80;20145;-73
2023/09/28 08:16:36;;;;;;;12.50;7.97;;;;;;;23.33;50.88;101441.01;1789917;80;21082;-74
2023/09/28 08:19:06;;;;;;;15.35;7.45;;;;;;;23.57;50.15;101439.74;1789638;80;21058;-79
2023/09/28 08:21:38;;;;;;;14.15;7.53;;;;;;;23.81;49.24;101441.73;1789842;80;21015;-79
2023/09/28 08:24:07;;;;;;;14.50;7.90;;;;;;;23.94;48.57;101440.50;1789679;79;21458;-80
2023/09/28 08:26:37;;;;;;;12.60;7.62;;;;;;;24.08;48.09;101434.81;1813365;77;21062;-80
2023/09/28 08:29:08;;;;;;;11.40;6.95;;;;;;;24.22;47.68;101437.50;1822268;78;21023;-80
2023/09/28 08:31:39;;;;;;;15.90;7.53;;;;;;;24.26;46.97;101433.05;1822083;77;20995;-79
2023/09/28 08:34:09;;;;;;;14.65;8.20;;;;;;;24.33;47.08;101430.92;1822181;77;21027;-79
2023/09/28 08:36:41;;;;;;;14.80;7.60;;;;;;;24.49;46.61;101435.28;1822119;79;21019;-78
2023/09/28 08:39:12;;;;;;;18.70;9.55;;;;;;;24.53;46.12;101434.48;1821947;77;21019;-78
2023/09/28 08:41:47;;;;;;;11.30;7.15;;;;;;;24.46;46.10;101434.41;1822129;77;21015;-75
2023/09/28 08:44:16;;;;;;;10.65;6.67;;;;;;;24.32;46.32;101432.03;1821967;77;21011;-81
2023/09/28 08:46:47;;;;;;;11.12;6.90;;;;;;;24.21;46.46;101428.80;1822013;79;21155;-80
2023/09/28 08:49:16;;;;;;;11.33;7.08;;;;;;;24.08;46.23;101425.02;1821947;77;21482;-79
2023/09/28 08:51:46;;;;;;;11.05;6.72;;;;;;;23.91;46.52;101421.42;1804058;79;21537;-78
2023/09/28 08:54:17;;;;;;;9.78;6.20;;;;;;;23.78;47.01;101419.02;1822199;77;20979;-77
2023/09/28 08:56:48;;;;;;;11.20;6.47;;;;;;;23.66;47.11;101421.39;1822092;77;20976;-77
2023/09/28 08:59:19;;;;;;;9.90;6.87;;;;;;;23.47;47.42;101417.19;1817659;79;20983;-81
2023/09/28 09:01:48;;;;;;;10.90;6.87;;;;;;;23.33;48.08;101408.84;1792691;79;21493;-77
2023/09/28 09:04:19;;;;;;;12.88;6.60;;;;;;;23.21;48.52;101407.55;1796975;79;21029;-82
2023/09/28 09:06:48;;;;;;;14.98;7.20;;;;;;;23.09;48.89;101406.27;1796815;80;21499;-82
2023/09/28 09:09:18;;;;;;;14.07;7.17;;;;;;;23.01;49.13;101403.91;1810426;78;21095;-78
2023/09/28 09:11:52;;;;;;;10.85;6.83;;;;;;;22.98;49.43;101403.56;1819657;79;21039;-79
2023/09/28 09:14:30;;;;;;;12.45;6.35;;;;;;;22.94;49.80;101414.41;1819694;79;21091;-80
2023/09/28 09:17:00;;;;;;;9.08;6.58;;;;;;;22.92;50.05;101404.04;1784581;80;21209;-78
2023/09/28 09:19:31;;;;;;;15.70;7.20;;;;;;;22.91;50.14;101398.16;1819668;79;21052;-82
2023/09/28 09:22:04;;;;;;;9.50;7.28;;;;;;;22.91;50.33;101403.74;1790684;80;21048;-81
2023/09/28 09:24:34;;;;;;;14.78;7.50;;;;;;;22.88;50.39;101397.81;1819617;79;21522;-74
2023/09/28 09:27:04;;;;;;;10.15;7.45;;;;;;;22.86;50.47;101397.23;1819499;79;21511;-81
2023/09/28 09:29:33;;;;;;;12.73;7.10;;;;;;;22.82;50.38;101395.49;1819905;79;21041;-78
2023/09/28 09:32:03;;;;;;;11.65;7.20;;;;;;;22.80;50.38;101392.11;1819736;79;21498;-78
2023/09/28 09:34:34;;;;;;;11.40;6.90;;;;;;;22.76;50.44;101393.13;1819775;79;21052;-79
2023/09/28 09:37:03;;;;;;;14.30;6.92;;;;;;;22.75;50.68;101384.97;1819497;79;21047;-80
2023/09/28 09:39:34;;;;;;;9.85;7.15;;;;;;;22.76;50.77;101383.91;1819434;79;21072;-77
2023/09/28 09:42:04;;;;;;;13.48;6.47;;;;;;;22.76;50.53;101376.37;1819529;79;21452;-79
2023/09/28 09:44:34;;;;;;;15.15;7.75;;;;;;;22.76;50.59;101377.77;1819700;79;21040;-77
2023/09/28 09:47:05;;;;;;;12.43;6.60;;;;;;;22.78;50.55;101369.13;1792833;79;21072;-80
2023/09/28 09:49:35;;;;;;;9.73;6.37;;;;;;;22.78;50.45;101368.58;1819484;79;21064;-78
2023/09/28 09:52:06;;;;;;;10.13;6.12;;;;;;;22.78;50.45;101366.33;1819497;79;21016;-77
2023/09/28 09:54:36;;;;;;;11.15;6.00;;;;;;;22.79;50.40;101365.23;1819714;79;21913;-79
2023/09/28 09:57:07;;;;;;;9.73;6.33;;;;;;;22.77;49.91;101364.64;1819673;79;21111;-79
2023/09/28 09:59:37;;;;;;;11.30;5.95;;;;;;;22.74;50.11;101363.72;1820176;79;21465;-79
2023/09/28 10:02:07;;;;;;;11.80;7.20;;;;;;;22.74;49.71;101356.18;1761925;81;21071;-78
2023/09/28 10:04:37;;;;;;;9.85;6.60;;;;;;;22.76;49.52;101358.75;1814532;79;20979;-79
2023/09/28 10:07:10;;;;;;;12.40;7.10;;;;;;;22.73;49.62;101356.44;1826051;78;21043;-77
2023/09/28 10:09:38;;;;;;;10.25;6.37;;;;;;;22.72;49.64;101356.98;1758100;81;21078;-78
2023/09/28 10:12:08;;;;;;;10.68;6.35;;;;;;;22.72;49.48;101355.59;1814537;79;21016;-78
2023/09/28 10:14:39;;;;;;;8.93;6.00;;;;;;;22.71;49.63;101360.88;1826305;78;21018;-78
2023/09/28 10:17:10;;;;;;;9.60;6.20;;;;;;;22.70;49.87;101351.36;1758765;81;21038;-78
2023/09/28 10:19:40;;;;;;;10.30;7.05;;;;;;;22.71;50.08;101350.25;1814528;79;21059;-77
2023/09/28 10:22:14;;;;;;;10.93;7.10;;;;;;;22.72;50.22;101350.55;1727691;81;21102;-79
2023/09/28 10:24:45;;;;;;;12.35;6.60;;;;;;;22.74;50.15;101351.14;1814530;79;21026;-77
2023/09/28 10:27:16;;;;;;;11.53;6.70;;;;;;;22.78;50.19;101341.17;1758633;81;21038;-79
2023/09/28 10:29:45;;;;;;;13.35;6.85;;;;;;;22.79;50.25;101344.27;1814582;79;22041;-76
2023/09/28 10:32:29;;;;;;;13.03;7.10;;;;;;;22.82;50.15;101350.77;1826189;78;21038;-78
2023/09/28 10:35:26;;;;;;;11.97;6.50;;;;;;;22.83;50.34;101340.44;1758690;81;21023;-78
2023/09/28 10:38:17;;;;;;;10.58;6.40;;;;;;;22.84;50.30;101334.59;1758420;81;21110;-78
2023/09/28 10:41:03;;;;;;;10.63;6.87;;;;;;;22.87;50.28;101330.44;1783433;79;21526;-80
2023/09/28 10:43:37;;;;;;;9.58;6.90;;;;;;;22.89;50.49;101331.87;1758653;81;21043;-79
2023/09/28 10:46:07;;;;;;;10.03;7.37;;;;;;;22.95;50.59;101328.05;1814497;79;21073;-80
2023/09/28 10:48:47;;;;;;;12.73;7.17;;;;;;;22.99;50.51;101327.83;1758869;81;21031;-79
2023/09/28 10:51:17;;;;;;;10.40;6.53;;;;;;;23.00;50.40;101323.94;1758589;81;21011;-80
2023/09/28 10:53:48;;;;;;;11.70;7.60;;;;;;;23.02;50.41;101319.48;1814387;79;21545;-81
2023/09/28 10:56:18;;;;;;;9.60;6.50;;;;;;;23.03;50.36;101320.63;1758742;81;21094;-79
2023/09/28 10:58:47;;;;;;;10.55;7.05;;;;;;;23.04;50.47;101320.06;1814917;79;21008;-79
2023/09/28 11:01:16;;;;;;;10.85;6.55;;;;;;;23.03;50.33;101315.58;1783298;80;21007;-82
2023/09/28 11:03:46;;;;;;;12.25;7.33;;;;;;;23.03;50.31;101313.63;1816331;79;21081;-80
2023/09/28 11:06:15;;;;;;;12.98;6.78;;;;;;;23.06;50.23;101304.73;1817217;78;21469;-80
2023/09/28 11:08:45;;;;;;;11.12;6.28;;;;;;;23.08;50.02;101303.07;1816665;79;21026;-81
2023/09/28 11:11:17;;;;;;;11.40;6.65;;;;;;;23.11;49.99;101299.76;1816421;78;21010;-81
2023/09/28 11:13:46;;;;;;;13.32;6.78;;;;;;;23.14;49.94;101300.64;1816588;78;21033;-79
2023/09/28 11:16:17;;;;;;;10.43;6.42;;;;;;;23.20;49.84;101298.75;1816682;79;21429;-79
2023/09/28 11:18:47;;;;;;;13.10;6.30;;;;;;;23.23;49.15;101298.23;1816273;79;21054;-76
2023/09/28 11:21:17;;;;;;;11.08;6.80;;;;;;;23.27;49.02;101291.02;1816184;79;21465;-73
2023/09/28 11:23:46;;;;;;;11.15;6.60;;;;;;;23.31;48.75;101291.63;1816046;78;21026;-77
2023/09/28 11:26:14;;;;;;;12.40;6.80;;;;;;;23.37;48.68;101293.94;1816460;78;21014;-80
2023/09/28 11:28:44;;;;;;;12.88;6.45;;;;;;;23.40;48.64;101282.23;1816706;79;21022;-84
2023/09/28 11:31:14;;;;;;;8.68;5.97;;;;;;;23.42;48.39;101282.84;1817292;78;21017;-83
2023/09/28 11:33:45;;;;;;;9.05;6.05;;;;;;;23.45;48.47;101280.08;1817322;79;20987;-83